sensor_id;sensor_type;location;lat;lon;timestamp;P1;durP1;ratioP1;P2;durP2;ratioP2
8036;SDS011;4061;51.360;7.340;2022-07-29T00:01:56;6.13;;;1.05;;
8036;SDS011;4061;51.360;7.340;2022-07-29T00:04:23;3.40;;;0.60;;
8036;SDS011;4061;51.360;7.340;2022-07-29T00:06:50;1.10;;;0.77;;
8036;SDS011;4061;51.360;7.340;2022-07-29T00:09:17;1.52;;;0.50;;
8036;SDS011;4061;51.360;7.340;2022-07-29T00:11:44;3.95;;;0.60;;
8036;SDS011;4061;51.360;7.340;2022-07-29T00:14:11;6.53;;;0.80;;
8036;SDS011;4061;51.360;7.340;2022-07-29T00:16:38;2.38;;;0.77;;
8036;SDS011;4061;51.360;7.340;2022-07-29T00:19:07;5.13;;;0.60;;
8036;SDS011;4061;51.360;7.340;2022-07-29T00:21:34;5.80;;;0.60;;
8036;SDS011;4061;51.360;7.340;2022-07-29T00:24:01;5.78;;;0.82;;
8036;SDS011;4061;51.360;7.340;2022-07-29T00:26:28;5.45;;;0.70;;
8036;SDS011;4061;51.360;7.340;2022-07-29T00:28:57;2.70;;;0.95;;
8036;SDS011;4061;51.360;7.340;2022-07-29T00:31:24;2.78;;;0.68;;
8036;SDS011;4061;51.360;7.340;2022-07-29T00:33:51;6.43;;;0.90;;
8036;SDS011;4061;51.360;7.340;2022-07-29T00:36:20;4.20;;;0.88;;
8036;SDS011;4061;51.360;7.340;2022-07-29T00:38:46;3.75;;;0.85;;
8036;SDS011;4061;51.360;7.340;2022-07-29T00:41:13;2.35;;;0.90;;
8036;SDS011;4061;51.360;7.340;2022-07-29T00:43:40;2.95;;;1.00;;
8036;SDS011;4061;51.360;7.340;2022-07-29T00:46:07;1.70;;;0.50;;
8036;SDS011;4061;51.360;7.340;2022-07-29T00:48:35;1.90;;;0.57;;
8036;SDS011;4061;51.360;7.340;2022-07-29T00:51:03;2.90;;;1.05;;
8036;SDS011;4061;51.360;7.340;2022-07-29T00:53:33;2.58;;;0.75;;
8036;SDS011;4061;51.360;7.340;2022-07-29T00:56:02;3.30;;;0.90;;
8036;SDS011;4061;51.360;7.340;2022-07-29T00:58:29;0.88;;;0.60;;
8036;SDS011;4061;51.360;7.340;2022-07-29T01:00:57;4.90;;;0.60;;
8036;SDS011;4061;51.360;7.340;2022-07-29T01:03:24;4.35;;;0.68;;
8036;SDS011;4061;51.360;7.340;2022-07-29T01:05:51;1.45;;;0.77;;
8036;SDS011;4061;51.360;7.340;2022-07-29T01:08:19;2.17;;;0.57;;
8036;SDS011;4061;51.360;7.340;2022-07-29T01:10:48;1.65;;;0.70;;
8036;SDS011;4061;51.360;7.340;2022-07-29T01:13:16;2.13;;;0.73;;
8036;SDS011;4061;51.360;7.340;2022-07-29T01:15:43;2.00;;;0.52;;
8036;SDS011;4061;51.360;7.340;2022-07-29T01:18:13;6.05;;;1.13;;
8036;SDS011;4061;51.360;7.340;2022-07-29T01:20:48;2.95;;;0.65;;
8036;SDS011;4061;51.360;7.340;2022-07-29T01:23:27;3.08;;;0.50;;
8036;SDS011;4061;51.360;7.340;2022-07-29T01:26:12;4.13;;;1.05;;
8036;SDS011;4061;51.360;7.340;2022-07-29T01:28:51;6.13;;;0.95;;
8036;SDS011;4061;51.360;7.340;2022-07-29T01:31:23;5.68;;;0.63;;
8036;SDS011;4061;51.360;7.340;2022-07-29T01:33:54;0.80;;;0.55;;
8036;SDS011;4061;51.360;7.340;2022-07-29T01:36:25;1.40;;;0.60;;
8036;SDS011;4061;51.360;7.340;2022-07-29T01:38:56;0.40;;;0.40;;
8036;SDS011;4061;51.360;7.340;2022-07-29T01:41:24;1.30;;;0.70;;
8036;SDS011;4061;51.360;7.340;2022-07-29T01:43:56;8.30;;;1.23;;
8036;SDS011;4061;51.360;7.340;2022-07-29T01:46:25;3.35;;;1.05;;
8036;SDS011;4061;51.360;7.340;2022-07-29T01:48:55;4.60;;;0.88;;
8036;SDS011;4061;51.360;7.340;2022-07-29T01:51:24;7.95;;;1.23;;
8036;SDS011;4061;51.360;7.340;2022-07-29T01:53:58;4.05;;;0.88;;
8036;SDS011;4061;51.360;7.340;2022-07-29T01:56:28;3.20;;;0.85;;
8036;SDS011;4061;51.360;7.340;2022-07-29T01:58:59;2.15;;;0.80;;
8036;SDS011;4061;51.360;7.340;2022-07-29T02:01:27;1.95;;;0.80;;
8036;SDS011;4061;51.360;7.340;2022-07-29T02:03:56;5.60;;;1.13;;
8036;SDS011;4061;51.360;7.340;2022-07-29T02:06:24;9.63;;;1.10;;
8036;SDS011;4061;51.360;7.340;2022-07-29T02:08:52;0.80;;;0.80;;
8036;SDS011;4061;51.360;7.340;2022-07-29T02:11:20;5.47;;;1.15;;
8036;SDS011;4061;51.360;7.340;2022-07-29T02:13:47;2.70;;;0.70;;
8036;SDS011;4061;51.360;7.340;2022-07-29T02:16:17;5.85;;;0.80;;
8036;SDS011;4061;51.360;7.340;2022-07-29T02:18:45;1.27;;;1.00;;
8036;SDS011;4061;51.360;7.340;2022-07-29T02:21:16;1.67;;;0.80;;
8036;SDS011;4061;51.360;7.340;2022-07-29T02:23:46;2.10;;;0.80;;
8036;SDS011;4061;51.360;7.340;2022-07-29T02:26:15;2.13;;;0.68;;
8036;SDS011;4061;51.360;7.340;2022-07-29T02:28:44;0.52;;;0.52;;
8036;SDS011;4061;51.360;7.340;2022-07-29T02:31:11;1.70;;;1.00;;
8036;SDS011;4061;51.360;7.340;2022-07-29T02:33:40;2.70;;;1.10;;
8036;SDS011;4061;51.360;7.340;2022-07-29T02:36:08;1.65;;;0.65;;
8036;SDS011;4061;51.360;7.340;2022-07-29T02:38:35;5.30;;;0.77;;
8036;SDS011;4061;51.360;7.340;2022-07-29T02:41:23;2.70;;;0.70;;
8036;SDS011;4061;51.360;7.340;2022-07-29T02:43:52;2.55;;;0.82;;
8036;SDS011;4061;51.360;7.340;2022-07-29T02:46:23;2.47;;;0.70;;
8036;SDS011;4061;51.360;7.340;2022-07-29T02:48:55;2.20;;;0.70;;
8036;SDS011;4061;51.360;7.340;2022-07-29T02:51:25;0.98;;;0.82;;
8036;SDS011;4061;51.360;7.340;2022-07-29T02:53:56;3.20;;;0.50;;
8036;SDS011;4061;51.360;7.340;2022-07-29T02:56:24;7.68;;;0.73;;
8036;SDS011;4061;51.360;7.340;2022-07-29T02:58:53;7.00;;;1.08;;
8036;SDS011;4061;51.360;7.340;2022-07-29T03:01:22;2.95;;;0.70;;
8036;SDS011;4061;51.360;7.340;2022-07-29T03:03:50;4.28;;;0.63;;
8036;SDS011;4061;51.360;7.340;2022-07-29T03:06:20;4.10;;;0.70;;
8036;SDS011;4061;51.360;7.340;2022-07-29T03:08:47;3.00;;;0.77;;
8036;SDS011;4061;51.360;7.340;2022-07-29T03:11:15;2.85;;;0.90;;
8036;SDS011;4061;51.360;7.340;2022-07-29T03:13:43;8.27;;;1.17;;
8036;SDS011;4061;51.360;7.340;2022-07-29T03:16:10;5.47;;;0.80;;
8036;SDS011;4061;51.360;7.340;2022-07-29T03:18:38;2.03;;;0.80;;
8036;SDS011;4061;51.360;7.340;2022-07-29T03:21:05;1.85;;;0.70;;
8036;SDS011;4061;51.360;7.340;2022-07-29T03:23:34;2.83;;;0.90;;
8036;SDS011;4061;51.360;7.340;2022-07-29T03:26:01;1.13;;;0.43;;
8036;SDS011;4061;51.360;7.340;2022-07-29T03:28:29;7.95;;;0.80;;
8036;SDS011;4061;51.360;7.340;2022-07-29T03:30:56;0.93;;;0.57;;
8036;SDS011;4061;51.360;7.340;2022-07-29T03:33:23;4.43;;;1.02;;
8036;SDS011;4061;51.360;7.340;2022-07-29T03:35:51;6.10;;;0.70;;
8036;SDS011;4061;51.360;7.340;2022-07-29T03:38:18;1.48;;;0.52;;
8036;SDS011;4061;51.360;7.340;2022-07-29T03:40:48;4.13;;;1.00;;
8036;SDS011;4061;51.360;7.340;2022-07-29T03:43:16;3.40;;;1.20;;
8036;SDS011;4061;51.360;7.340;2022-07-29T03:45:45;4.78;;;0.90;;
8036;SDS011;4061;51.360;7.340;2022-07-29T03:48:15;5.38;;;0.82;;
8036;SDS011;4061;51.360;7.340;2022-07-29T03:50:43;7.65;;;0.70;;
8036;SDS011;4061;51.360;7.340;2022-07-29T03:53:10;1.63;;;0.57;;
8036;SDS011;4061;51.360;7.340;2022-07-29T03:55:40;4.78;;;0.95;;
8036;SDS011;4061;51.360;7.340;2022-07-29T03:58:09;3.30;;;0.85;;
8036;SDS011;4061;51.360;7.340;2022-07-29T04:00:37;0.88;;;0.88;;
8036;SDS011;4061;51.360;7.340;2022-07-29T04:03:05;8.13;;;1.05;;
8036;SDS011;4061;51.360;7.340;2022-07-29T04:05:32;1.40;;;0.88;;
8036;SDS011;4061;51.360;7.340;2022-07-29T04:07:59;2.95;;;0.82;;
8036;SDS011;4061;51.360;7.340;2022-07-29T04:10:26;2.72;;;0.75;;
8036;SDS011;4061;51.360;7.340;2022-07-29T04:12:54;3.50;;;0.70;;
8036;SDS011;4061;51.360;7.340;2022-07-29T04:15:22;3.40;;;1.05;;
8036;SDS011;4061;51.360;7.340;2022-07-29T04:17:49;4.13;;;0.80;;
8036;SDS011;4061;51.360;7.340;2022-07-29T04:20:17;5.47;;;0.90;;
8036;SDS011;4061;51.360;7.340;2022-07-29T04:22:44;2.25;;;0.63;;
8036;SDS011;4061;51.360;7.340;2022-07-29T04:25:11;2.50;;;0.82;;
8036;SDS011;4061;51.360;7.340;2022-07-29T04:27:38;6.07;;;0.90;;
8036;SDS011;4061;51.360;7.340;2022-07-29T04:30:26;4.80;;;1.20;;
8036;SDS011;4061;51.360;7.340;2022-07-29T04:32:54;6.70;;;0.85;;
8036;SDS011;4061;51.360;7.340;2022-07-29T04:35:21;3.45;;;0.68;;
8036;SDS011;4061;51.360;7.340;2022-07-29T04:37:48;3.90;;;1.05;;
8036;SDS011;4061;51.360;7.340;2022-07-29T04:40:15;1.52;;;1.30;;
8036;SDS011;4061;51.360;7.340;2022-07-29T04:42:42;6.82;;;1.30;;
8036;SDS011;4061;51.360;7.340;2022-07-29T04:45:10;4.80;;;1.77;;
8036;SDS011;4061;51.360;7.340;2022-07-29T04:47:38;7.10;;;1.85;;
8036;SDS011;4061;51.360;7.340;2022-07-29T04:50:07;11.55;;;1.98;;
8036;SDS011;4061;51.360;7.340;2022-07-29T04:52:34;5.30;;;1.50;;
8036;SDS011;4061;51.360;7.340;2022-07-29T04:55:01;2.90;;;1.92;;
8036;SDS011;4061;51.360;7.340;2022-07-29T04:57:29;1.58;;;1.00;;
8036;SDS011;4061;51.360;7.340;2022-07-29T04:59:56;1.95;;;1.17;;
8036;SDS011;4061;51.360;7.340;2022-07-29T05:02:23;4.07;;;1.75;;
8036;SDS011;4061;51.360;7.340;2022-07-29T05:04:51;2.67;;;1.60;;
8036;SDS011;4061;51.360;7.340;2022-07-29T05:07:19;3.67;;;1.40;;
8036;SDS011;4061;51.360;7.340;2022-07-29T05:09:46;4.00;;;1.67;;
8036;SDS011;4061;51.360;7.340;2022-07-29T05:12:13;2.92;;;1.65;;
8036;SDS011;4061;51.360;7.340;2022-07-29T05:14:40;4.00;;;1.35;;
8036;SDS011;4061;51.360;7.340;2022-07-29T05:17:07;2.22;;;1.67;;
8036;SDS011;4061;51.360;7.340;2022-07-29T05:19:35;6.05;;;1.50;;
8036;SDS011;4061;51.360;7.340;2022-07-29T05:22:03;7.00;;;1.98;;
8036;SDS011;4061;51.360;7.340;2022-07-29T05:24:30;7.82;;;1.52;;
8036;SDS011;4061;51.360;7.340;2022-07-29T05:26:57;3.33;;;1.27;;
8036;SDS011;4061;51.360;7.340;2022-07-29T05:29:25;6.97;;;1.55;;
8036;SDS011;4061;51.360;7.340;2022-07-29T05:31:52;3.70;;;1.20;;
8036;SDS011;4061;51.360;7.340;2022-07-29T05:34:19;1.30;;;0.98;;
8036;SDS011;4061;51.360;7.340;2022-07-29T05:36:46;2.80;;;1.13;;
8036;SDS011;4061;51.360;7.340;2022-07-29T05:39:14;2.97;;;1.30;;
8036;SDS011;4061;51.360;7.340;2022-07-29T05:41:42;1.40;;;1.30;;
8036;SDS011;4061;51.360;7.340;2022-07-29T05:44:09;1.77;;;0.88;;
8036;SDS011;4061;51.360;7.340;2022-07-29T05:46:38;1.70;;;1.10;;
8036;SDS011;4061;51.360;7.340;2022-07-29T05:49:05;6.00;;;1.42;;
8036;SDS011;4061;51.360;7.340;2022-07-29T05:51:32;6.63;;;2.08;;
8036;SDS011;4061;51.360;7.340;2022-07-29T05:53:59;2.05;;;1.58;;
8036;SDS011;4061;51.360;7.340;2022-07-29T05:56:28;1.83;;;1.50;;
8036;SDS011;4061;51.360;7.340;2022-07-29T05:58:55;2.03;;;1.30;;
8036;SDS011;4061;51.360;7.340;2022-07-29T06:01:22;3.25;;;1.55;;
8036;SDS011;4061;51.360;7.340;2022-07-29T06:03:49;3.25;;;1.27;;
8036;SDS011;4061;51.360;7.340;2022-07-29T06:06:17;4.57;;;1.50;;
8036;SDS011;4061;51.360;7.340;2022-07-29T06:08:44;1.45;;;1.30;;
8036;SDS011;4061;51.360;7.340;2022-07-29T06:11:11;3.08;;;1.25;;
8036;SDS011;4061;51.360;7.340;2022-07-29T06:13:40;6.15;;;1.38;;
8036;SDS011;4061;51.360;7.340;2022-07-29T06:16:07;5.97;;;1.20;;
8036;SDS011;4061;51.360;7.340;2022-07-29T06:18:34;2.45;;;1.20;;
8036;SDS011;4061;51.360;7.340;2022-07-29T06:21:01;7.05;;;1.70;;
8036;SDS011;4061;51.360;7.340;2022-07-29T06:23:34;1.30;;;1.30;;
8036;SDS011;4061;51.360;7.340;2022-07-29T06:26:01;7.13;;;1.77;;
8036;SDS011;4061;51.360;7.340;2022-07-29T06:28:28;2.00;;;1.42;;
8036;SDS011;4061;51.360;7.340;2022-07-29T06:30:57;1.60;;;1.50;;
8036;SDS011;4061;51.360;7.340;2022-07-29T06:33:24;5.28;;;1.55;;
8036;SDS011;4061;51.360;7.340;2022-07-29T06:35:51;2.67;;;1.20;;
8036;SDS011;4061;51.360;7.340;2022-07-29T06:38:19;4.28;;;1.42;;
8036;SDS011;4061;51.360;7.340;2022-07-29T06:40:46;1.15;;;1.15;;
8036;SDS011;4061;51.360;7.340;2022-07-29T06:43:26;1.55;;;1.45;;
8036;SDS011;4061;51.360;7.340;2022-07-29T06:45:57;4.63;;;1.63;;
8036;SDS011;4061;51.360;7.340;2022-07-29T06:48:24;2.40;;;1.50;;
8036;SDS011;4061;51.360;7.340;2022-07-29T06:50:52;4.35;;;1.67;;
8036;SDS011;4061;51.360;7.340;2022-07-29T06:53:19;2.40;;;1.10;;
8036;SDS011;4061;51.360;7.340;2022-07-29T06:55:46;5.28;;;1.75;;
8036;SDS011;4061;51.360;7.340;2022-07-29T06:58:13;2.03;;;1.27;;
8036;SDS011;4061;51.360;7.340;2022-07-29T07:00:43;3.53;;;1.27;;
8036;SDS011;4061;51.360;7.340;2022-07-29T07:03:11;2.22;;;1.40;;
8036;SDS011;4061;51.360;7.340;2022-07-29T07:05:39;5.68;;;1.50;;
8036;SDS011;4061;51.360;7.340;2022-07-29T07:08:06;2.10;;;1.38;;
8036;SDS011;4061;51.360;7.340;2022-07-29T07:10:33;1.67;;;1.50;;
8036;SDS011;4061;51.360;7.340;2022-07-29T07:13:01;3.08;;;1.73;;
8036;SDS011;4061;51.360;7.340;2022-07-29T07:15:28;2.75;;;1.48;;
8036;SDS011;4061;51.360;7.340;2022-07-29T07:17:55;1.85;;;1.75;;
8036;SDS011;4061;51.360;7.340;2022-07-29T07:20:24;2.88;;;1.40;;
8036;SDS011;4061;51.360;7.340;2022-07-29T07:22:51;3.60;;;1.35;;
8036;SDS011;4061;51.360;7.340;2022-07-29T07:25:19;1.58;;;1.45;;
8036;SDS011;4061;51.360;7.340;2022-07-29T07:27:46;3.63;;;1.35;;
8036;SDS011;4061;51.360;7.340;2022-07-29T07:30:13;2.42;;;1.63;;
8036;SDS011;4061;51.360;7.340;2022-07-29T07:32:40;2.35;;;1.10;;
8036;SDS011;4061;51.360;7.340;2022-07-29T07:35:08;2.00;;;1.20;;
8036;SDS011;4061;51.360;7.340;2022-07-29T07:37:36;1.92;;;1.33;;
8036;SDS011;4061;51.360;7.340;2022-07-29T07:40:05;6.68;;;1.27;;
8036;SDS011;4061;51.360;7.340;2022-07-29T07:42:33;7.32;;;1.58;;
8036;SDS011;4061;51.360;7.340;2022-07-29T07:45:00;13.85;;;1.50;;
8036;SDS011;4061;51.360;7.340;2022-07-29T07:47:27;2.63;;;1.50;;
8036;SDS011;4061;51.360;7.340;2022-07-29T07:49:54;6.15;;;1.23;;
8036;SDS011;4061;51.360;7.340;2022-07-29T07:52:21;4.05;;;1.20;;
8036;SDS011;4061;51.360;7.340;2022-07-29T07:54:50;6.22;;;1.45;;
8036;SDS011;4061;51.360;7.340;2022-07-29T07:57:18;2.40;;;1.40;;
8036;SDS011;4061;51.360;7.340;2022-07-29T07:59:45;9.88;;;1.85;;
8036;SDS011;4061;51.360;7.340;2022-07-29T08:02:12;2.40;;;1.42;;
8036;SDS011;4061;51.360;7.340;2022-07-29T08:04:39;4.28;;;1.10;;
8036;SDS011;4061;51.360;7.340;2022-07-29T08:07:06;3.70;;;2.90;;
8036;SDS011;4061;51.360;7.340;2022-07-29T08:09:34;2.58;;;1.63;;
8036;SDS011;4061;51.360;7.340;2022-07-29T08:12:03;6.20;;;1.38;;
8036;SDS011;4061;51.360;7.340;2022-07-29T08:14:31;1.65;;;0.95;;
8036;SDS011;4061;51.360;7.340;2022-07-29T08:16:59;5.10;;;1.60;;
8036;SDS011;4061;51.360;7.340;2022-07-29T08:19:26;6.10;;;1.20;;
8036;SDS011;4061;51.360;7.340;2022-07-29T08:21:53;4.45;;;1.20;;
8036;SDS011;4061;51.360;7.340;2022-07-29T08:24:20;1.80;;;1.25;;
8036;SDS011;4061;51.360;7.340;2022-07-29T08:27:06;4.50;;;1.27;;
8036;SDS011;4061;51.360;7.340;2022-07-29T08:29:33;4.07;;;1.40;;
8036;SDS011;4061;51.360;7.340;2022-07-29T08:32:00;2.70;;;1.15;;
8036;SDS011;4061;51.360;7.340;2022-07-29T08:34:28;3.35;;;1.10;;
8036;SDS011;4061;51.360;7.340;2022-07-29T08:36:55;1.88;;;1.13;;
8036;SDS011;4061;51.360;7.340;2022-07-29T08:39:22;5.97;;;1.00;;
8036;SDS011;4061;51.360;7.340;2022-07-29T08:41:50;4.07;;;1.10;;
8036;SDS011;4061;51.360;7.340;2022-07-29T08:44:19;2.20;;;0.90;;
8036;SDS011;4061;51.360;7.340;2022-07-29T08:46:47;1.42;;;0.80;;
8036;SDS011;4061;51.360;7.340;2022-07-29T08:49:14;4.80;;;1.13;;
8036;SDS011;4061;51.360;7.340;2022-07-29T08:51:41;1.73;;;1.00;;
8036;SDS011;4061;51.360;7.340;2022-07-29T08:54:09;0.80;;;0.80;;
8036;SDS011;4061;51.360;7.340;2022-07-29T08:56:37;1.10;;;1.00;;
8036;SDS011;4061;51.360;7.340;2022-07-29T08:59:05;1.65;;;1.23;;
8036;SDS011;4061;51.360;7.340;2022-07-29T09:01:33;3.20;;;1.63;;
8036;SDS011;4061;51.360;7.340;2022-07-29T09:04:05;4.90;;;1.83;;
8036;SDS011;4061;51.360;7.340;2022-07-29T09:06:34;3.03;;;1.45;;
8036;SDS011;4061;51.360;7.340;2022-07-29T09:09:03;4.80;;;1.05;;
8036;SDS011;4061;51.360;7.340;2022-07-29T09:11:32;4.60;;;1.55;;
8036;SDS011;4061;51.360;7.340;2022-07-29T09:13:59;4.57;;;1.02;;
8036;SDS011;4061;51.360;7.340;2022-07-29T09:16:31;3.40;;;1.40;;
8036;SDS011;4061;51.360;7.340;2022-07-29T09:19:16;4.82;;;1.55;;
8036;SDS011;4061;51.360;7.340;2022-07-29T09:21:45;4.93;;;1.33;;
8036;SDS011;4061;51.360;7.340;2022-07-29T09:24:26;3.25;;;1.50;;
8036;SDS011;4061;51.360;7.340;2022-07-29T09:26:53;2.30;;;1.27;;
8036;SDS011;4061;51.360;7.340;2022-07-29T09:29:22;1.75;;;1.35;;
8036;SDS011;4061;51.360;7.340;2022-07-29T09:31:50;5.65;;;1.30;;
8036;SDS011;4061;51.360;7.340;2022-07-29T09:34:21;6.07;;;1.58;;
8036;SDS011;4061;51.360;7.340;2022-07-29T09:36:49;3.67;;;1.55;;
8036;SDS011;4061;51.360;7.340;2022-07-29T09:39:27;3.38;;;1.20;;
8036;SDS011;4061;51.360;7.340;2022-07-29T09:41:56;3.70;;;1.05;;
8036;SDS011;4061;51.360;7.340;2022-07-29T09:44:23;2.90;;;1.25;;
8036;SDS011;4061;51.360;7.340;2022-07-29T09:46:57;2.22;;;1.02;;
8036;SDS011;4061;51.360;7.340;2022-07-29T09:49:32;7.97;;;1.30;;
8036;SDS011;4061;51.360;7.340;2022-07-29T09:52:03;4.80;;;1.50;;
8036;SDS011;4061;51.360;7.340;2022-07-29T09:54:31;5.68;;;1.20;;
8036;SDS011;4061;51.360;7.340;2022-07-29T09:57:02;5.38;;;1.25;;
8036;SDS011;4061;51.360;7.340;2022-07-29T09:59:29;6.30;;;1.10;;
8036;SDS011;4061;51.360;7.340;2022-07-29T10:01:57;1.67;;;1.30;;
8036;SDS011;4061;51.360;7.340;2022-07-29T10:04:24;1.30;;;1.00;;
8036;SDS011;4061;51.360;7.340;2022-07-29T10:07:04;6.97;;;1.33;;
8036;SDS011;4061;51.360;7.340;2022-07-29T10:09:31;2.78;;;0.90;;
8036;SDS011;4061;51.360;7.340;2022-07-29T10:14:43;6.97;;;1.25;;
8036;SDS011;4061;51.360;7.340;2022-07-29T10:17:11;1.95;;;1.15;;
8036;SDS011;4061;51.360;7.340;2022-07-29T10:19:38;3.35;;;1.23;;
8036;SDS011;4061;51.360;7.340;2022-07-29T10:22:09;1.25;;;0.93;;
8036;SDS011;4061;51.360;7.340;2022-07-29T10:24:37;3.03;;;0.93;;
8036;SDS011;4061;51.360;7.340;2022-07-29T10:27:06;3.28;;;1.45;;
8036;SDS011;4061;51.360;7.340;2022-07-29T10:29:34;1.42;;;1.08;;
8036;SDS011;4061;51.360;7.340;2022-07-29T10:34:53;2.33;;;1.40;;
8036;SDS011;4061;51.360;7.340;2022-07-29T10:37:28;2.72;;;1.17;;
8036;SDS011;4061;51.360;7.340;2022-07-29T10:40:00;5.03;;;1.80;;
8036;SDS011;4061;51.360;7.340;2022-07-29T10:42:50;4.10;;;1.33;;
8036;SDS011;4061;51.360;7.340;2022-07-29T10:45:19;5.10;;;1.48;;
8036;SDS011;4061;51.360;7.340;2022-07-29T10:47:46;5.70;;;1.25;;
8036;SDS011;4061;51.360;7.340;2022-07-29T10:50:14;5.40;;;1.15;;
8036;SDS011;4061;51.360;7.340;2022-07-29T10:52:54;5.13;;;1.45;;
8036;SDS011;4061;51.360;7.340;2022-07-29T10:55:34;2.90;;;1.05;;
8036;SDS011;4061;51.360;7.340;2022-07-29T10:58:14;5.68;;;1.20;;
8036;SDS011;4061;51.360;7.340;2022-07-29T11:00:42;7.38;;;1.40;;
8036;SDS011;4061;51.360;7.340;2022-07-29T11:03:10;8.13;;;1.40;;
8036;SDS011;4061;51.360;7.340;2022-07-29T11:05:56;6.07;;;1.48;;
8036;SDS011;4061;51.360;7.340;2022-07-29T11:08:25;4.85;;;1.27;;
8036;SDS011;4061;51.360;7.340;2022-07-29T11:13:48;5.35;;;1.52;;
8036;SDS011;4061;51.360;7.340;2022-07-29T11:16:16;5.15;;;1.33;;
8036;SDS011;4061;51.360;7.340;2022-07-29T11:21:35;7.53;;;1.60;;
8036;SDS011;4061;51.360;7.340;2022-07-29T11:24:12;3.25;;;1.40;;
8036;SDS011;4061;51.360;7.340;2022-07-29T11:26:40;5.90;;;1.98;;
8036;SDS011;4061;51.360;7.340;2022-07-29T11:29:13;4.57;;;1.88;;
8036;SDS011;4061;51.360;7.340;2022-07-29T11:31:43;12.68;;;2.17;;
8036;SDS011;4061;51.360;7.340;2022-07-29T11:34:17;3.00;;;1.63;;
8036;SDS011;4061;51.360;7.340;2022-07-29T11:39:32;7.35;;;1.58;;
8036;SDS011;4061;51.360;7.340;2022-07-29T11:42:14;5.97;;;1.83;;
8036;SDS011;4061;51.360;7.340;2022-07-29T11:45:02;2.00;;;1.67;;
8036;SDS011;4061;51.360;7.340;2022-07-29T11:47:31;5.57;;;1.65;;
8036;SDS011;4061;51.360;7.340;2022-07-29T11:49:59;6.40;;;1.67;;
8036;SDS011;4061;51.360;7.340;2022-07-29T11:52:31;1.83;;;1.60;;
8036;SDS011;4061;51.360;7.340;2022-07-29T11:55:00;6.63;;;1.83;;
8036;SDS011;4061;51.360;7.340;2022-07-29T11:57:28;12.32;;;1.77;;
8036;SDS011;4061;51.360;7.340;2022-07-29T11:59:57;5.35;;;1.20;;
8036;SDS011;4061;51.360;7.340;2022-07-29T12:02:24;3.60;;;1.90;;
8036;SDS011;4061;51.360;7.340;2022-07-29T12:04:52;4.53;;;2.10;;
8036;SDS011;4061;51.360;7.340;2022-07-29T12:07:19;3.97;;;1.90;;
8036;SDS011;4061;51.360;7.340;2022-07-29T12:09:53;2.58;;;1.63;;
8036;SDS011;4061;51.360;7.340;2022-07-29T12:12:21;6.07;;;2.15;;
8036;SDS011;4061;51.360;7.340;2022-07-29T12:14:49;4.65;;;2.17;;
8036;SDS011;4061;51.360;7.340;2022-07-29T12:17:25;3.78;;;2.10;;
8036;SDS011;4061;51.360;7.340;2022-07-29T12:19:53;3.50;;;2.45;;
8036;SDS011;4061;51.360;7.340;2022-07-29T12:22:27;4.97;;;2.00;;
8036;SDS011;4061;51.360;7.340;2022-07-29T12:24:54;6.68;;;2.30;;
8036;SDS011;4061;51.360;7.340;2022-07-29T12:27:23;7.70;;;2.58;;
8036;SDS011;4061;51.360;7.340;2022-07-29T12:29:56;3.10;;;2.80;;
8036;SDS011;4061;51.360;7.340;2022-07-29T12:32:30;12.95;;;2.85;;
8036;SDS011;4061;51.360;7.340;2022-07-29T12:34:57;5.75;;;2.08;;
8036;SDS011;4061;51.360;7.340;2022-07-29T12:37:25;3.80;;;2.40;;
8036;SDS011;4061;51.360;7.340;2022-07-29T12:39:52;3.42;;;1.90;;
8036;SDS011;4061;51.360;7.340;2022-07-29T12:42:19;11.20;;;2.13;;
8036;SDS011;4061;51.360;7.340;2022-07-29T12:44:48;6.65;;;2.40;;
8036;SDS011;4061;51.360;7.340;2022-07-29T12:47:16;3.30;;;2.55;;
8036;SDS011;4061;51.360;7.340;2022-07-29T12:49:44;4.97;;;2.08;;
8036;SDS011;4061;51.360;7.340;2022-07-29T12:52:24;5.10;;;2.42;;
8036;SDS011;4061;51.360;7.340;2022-07-29T12:54:51;4.75;;;1.80;;
8036;SDS011;4061;51.360;7.340;2022-07-29T12:57:18;2.80;;;2.22;;
8036;SDS011;4061;51.360;7.340;2022-07-29T12:59:59;3.40;;;2.40;;
8036;SDS011;4061;51.360;7.340;2022-07-29T13:02:26;3.42;;;1.90;;
8036;SDS011;4061;51.360;7.340;2022-07-29T13:04:57;4.15;;;1.55;;
8036;SDS011;4061;51.360;7.340;2022-07-29T13:07:25;6.47;;;1.92;;
8036;SDS011;4061;51.360;7.340;2022-07-29T13:09:53;8.07;;;2.25;;
8036;SDS011;4061;51.360;7.340;2022-07-29T13:12:20;2.17;;;1.83;;
8036;SDS011;4061;51.360;7.340;2022-07-29T13:14:48;5.38;;;1.88;;
8036;SDS011;4061;51.360;7.340;2022-07-29T13:17:17;4.30;;;1.75;;
8036;SDS011;4061;51.360;7.340;2022-07-29T13:19:46;4.57;;;1.67;;
8036;SDS011;4061;51.360;7.340;2022-07-29T13:22:14;6.78;;;1.77;;
8036;SDS011;4061;51.360;7.340;2022-07-29T13:24:45;4.32;;;2.10;;
8036;SDS011;4061;51.360;7.340;2022-07-29T13:27:13;2.47;;;2.25;;
8036;SDS011;4061;51.360;7.340;2022-07-29T13:29:40;3.63;;;1.70;;
8036;SDS011;4061;51.360;7.340;2022-07-29T13:32:07;4.38;;;1.98;;
8036;SDS011;4061;51.360;7.340;2022-07-29T13:34:36;14.63;;;1.95;;
8036;SDS011;4061;51.360;7.340;2022-07-29T13:37:03;1.60;;;1.48;;
8036;SDS011;4061;51.360;7.340;2022-07-29T13:39:30;1.73;;;1.50;;
8036;SDS011;4061;51.360;7.340;2022-07-29T13:41:57;2.60;;;1.50;;
8036;SDS011;4061;51.360;7.340;2022-07-29T13:44:24;4.40;;;1.65;;
8036;SDS011;4061;51.360;7.340;2022-07-29T13:46:52;6.53;;;2.47;;
8036;SDS011;4061;51.360;7.340;2022-07-29T13:49:19;1.50;;;1.05;;
8036;SDS011;4061;51.360;7.340;2022-07-29T13:51:47;1.08;;;0.98;;
8036;SDS011;4061;51.360;7.340;2022-07-29T13:54:15;3.95;;;1.50;;
8036;SDS011;4061;51.360;7.340;2022-07-29T13:56:42;6.40;;;1.40;;
8036;SDS011;4061;51.360;7.340;2022-07-29T13:59:09;6.03;;;1.90;;
8036;SDS011;4061;51.360;7.340;2022-07-29T14:01:37;3.78;;;1.58;;
8036;SDS011;4061;51.360;7.340;2022-07-29T14:04:06;2.45;;;1.90;;
8036;SDS011;4061;51.360;7.340;2022-07-29T14:06:33;5.13;;;1.88;;
8036;SDS011;4061;51.360;7.340;2022-07-29T14:09:02;1.58;;;1.48;;
8036;SDS011;4061;51.360;7.340;2022-07-29T14:11:31;6.40;;;1.38;;
8036;SDS011;4061;51.360;7.340;2022-07-29T14:13:58;5.22;;;1.35;;
8036;SDS011;4061;51.360;7.340;2022-07-29T14:16:25;3.63;;;1.67;;
8036;SDS011;4061;51.360;7.340;2022-07-29T14:18:53;1.73;;;1.27;;
8036;SDS011;4061;51.360;7.340;2022-07-29T14:21:20;4.28;;;1.55;;
8036;SDS011;4061;51.360;7.340;2022-07-29T14:23:47;4.80;;;1.60;;
8036;SDS011;4061;51.360;7.340;2022-07-29T14:26:15;1.95;;;1.08;;
8036;SDS011;4061;51.360;7.340;2022-07-29T14:28:43;4.13;;;1.10;;
8036;SDS011;4061;51.360;7.340;2022-07-29T14:31:10;2.92;;;1.30;;
8036;SDS011;4061;51.360;7.340;2022-07-29T14:33:37;5.63;;;1.13;;
8036;SDS011;4061;51.360;7.340;2022-07-29T14:36:04;1.17;;;1.08;;
8036;SDS011;4061;51.360;7.340;2022-07-29T14:38:31;6.40;;;1.17;;
8036;SDS011;4061;51.360;7.340;2022-07-29T14:40:59;4.22;;;1.10;;
8036;SDS011;4061;51.360;7.340;2022-07-29T14:43:27;2.53;;;1.05;;
8036;SDS011;4061;51.360;7.340;2022-07-29T14:45:55;5.70;;;1.80;;
8036;SDS011;4061;51.360;7.340;2022-07-29T14:48:23;5.47;;;1.17;;
8036;SDS011;4061;51.360;7.340;2022-07-29T14:50:50;5.15;;;1.85;;
8036;SDS011;4061;51.360;7.340;2022-07-29T14:53:17;3.97;;;1.80;;
8036;SDS011;4061;51.360;7.340;2022-07-29T14:55:44;7.70;;;1.33;;
8036;SDS011;4061;51.360;7.340;2022-07-29T14:58:11;1.50;;;1.38;;
8036;SDS011;4061;51.360;7.340;2022-07-29T15:00:40;5.45;;;1.63;;
8036;SDS011;4061;51.360;7.340;2022-07-29T15:03:07;5.97;;;1.30;;
8036;SDS011;4061;51.360;7.340;2022-07-29T15:05:35;6.28;;;1.77;;
8036;SDS011;4061;51.360;7.340;2022-07-29T15:08:02;1.58;;;1.13;;
8036;SDS011;4061;51.360;7.340;2022-07-29T15:10:30;4.50;;;1.27;;
8036;SDS011;4061;51.360;7.340;2022-07-29T15:12:57;2.65;;;1.60;;
8036;SDS011;4061;51.360;7.340;2022-07-29T15:15:24;2.00;;;1.80;;
8036;SDS011;4061;51.360;7.340;2022-07-29T15:17:53;4.25;;;1.20;;
8036;SDS011;4061;51.360;7.340;2022-07-29T15:20:20;2.90;;;1.33;;
8036;SDS011;4061;51.360;7.340;2022-07-29T15:22:50;5.47;;;1.17;;
8036;SDS011;4061;51.360;7.340;2022-07-29T15:25:17;7.03;;;1.42;;
8036;SDS011;4061;51.360;7.340;2022-07-29T15:27:44;2.80;;;1.30;;
8036;SDS011;4061;51.360;7.340;2022-07-29T15:30:11;7.30;;;1.30;;
8036;SDS011;4061;51.360;7.340;2022-07-29T15:32:41;4.85;;;1.40;;
8036;SDS011;4061;51.360;7.340;2022-07-29T15:35:10;5.80;;;1.27;;
8036;SDS011;4061;51.360;7.340;2022-07-29T15:37:37;1.80;;;1.10;;
8036;SDS011;4061;51.360;7.340;2022-07-29T15:40:05;3.40;;;1.55;;